Time;durP1;ratioP1;P1;durP2;ratioP2;P2;SDS_P1;SDS_P2;PMS_P1;PMS_P2;Temp;Humidity;BMP_temperature;BMP_pressure;BME280_temperature;BME280_humidity;BME280_pressure;Samples;Min_cycle;Max_cycle;Signal;HPM_P1;HPM_P2
2024/04/21 00:00:53;;;;;;;1.65;1.55;;;;;;;19.98;42.93;101336.48;2322477;75;49719;-78
2024/04/21 00:03:55;;;;;;;2.08;1.70;;;;;;;19.98;42.94;101337.83;2315590;75;49407;-78
2024/04/21 00:06:57;;;;;;;3.02;1.70;;;;;;;19.96;42.94;101331.79;2313645;75;50784;-79
2024/04/21 00:09:59;;;;;;;2.50;1.90;;;;;;;19.96;42.97;101338.50;2337127;75;51527;-78
2024/04/21 00:13:01;;;;;;;2.00;1.80;;;;;;;19.96;42.95;101342.53;2281798;75;50984;-78
2024/04/21 00:16:04;;;;;;;1.95;1.75;;;;;;;19.97;42.95;101340.20;2310337;75;51573;-78
2024/04/21 00:19:06;;;;;;;2.10;1.90;;;;;;;19.96;42.97;101342.05;2287190;75;50726;-77
2024/04/21 00:22:08;;;;;;;1.95;1.82;;;;;;;19.96;42.93;101344.73;2328217;75;51441;-78
2024/04/21 00:25:10;;;;;;;1.92;1.82;;;;;;;19.96;42.90;101346.56;2345235;75;51484;-77
2024/04/21 00:28:12;;;;;;;2.00;1.67;;;;;;;19.96;42.90;101345.22;2301249;75;50948;-78
2024/04/21 00:31:15;;;;;;;2.10;1.90;;;;;;;19.95;42.84;101342.22;2313323;75;50493;-77
2024/04/21 00:34:17;;;;;;;2.08;1.80;;;;;;;19.95;42.80;101343.55;2329571;75;51703;-78
2024/04/21 00:37:20;;;;;;;2.20;2.00;;;;;;;19.96;42.76;101343.88;2242835;75;52815;-78
2024/04/21 00:40:22;;;;;;;2.37;1.80;;;;;;;19.96;42.77;101349.25;2281005;75;52390;-77
2024/04/21 00:43:24;;;;;;;2.42;1.65;;;;;;;19.96;42.79;101350.11;2333792;75;51409;-77
2024/04/21 00:46:26;;;;;;;1.75;1.60;;;;;;;19.95;42.77;101351.10;2302862;75;50255;-78
2024/04/21 00:49:29;;;;;;;1.70;1.60;;;;;;;19.96;42.77;101357.30;2331287;75;51541;-77
2024/04/21 00:52:32;;;;;;;1.80;1.70;;;;;;;19.95;42.83;101355.13;2307683;75;50956;-78
2024/04/21 00:55:34;;;;;;;2.20;1.95;;;;;;;19.94;42.83;101363.38;2334790;75;51623;-78
2024/04/21 00:58:36;;;;;;;1.72;1.57;;;;;;;19.95;42.81;101362.36;2326310;75;52142;-77
2024/04/21 01:01:38;;;;;;;2.05;1.80;;;;;;;19.93;42.82;101349.09;2317614;75;52593;-78
2024/04/21 01:04:41;;;;;;;2.60;2.10;;;;;;;19.94;42.79;101352.13;2339354;75;50403;-77
2024/04/21 01:07:43;;;;;;;2.55;1.87;;;;;;;19.93;42.70;101353.12;2333443;74;50612;-78
2024/04/21 01:10:45;;;;;;;1.80;1.70;;;;;;;19.96;42.67;101354.62;2332109;75;50082;-78
2024/04/21 01:13:47;;;;;;;2.20;2.00;;;;;;;19.96;42.63;101353.27;2343941;75;50381;-78
2024/04/21 01:16:49;;;;;;;1.98;1.67;;;;;;;19.94;42.60;101357.50;2298865;75;51680;-78
2024/04/21 01:19:52;;;;;;;2.25;2.00;;;;;;;19.94;42.65;101362.87;2335877;75;51542;-77
2024/04/21 01:22:54;;;;;;;2.15;1.95;;;;;;;19.96;42.57;101359.99;2347783;75;51464;-78
2024/04/21 01:25:56;;;;;;;3.70;2.10;;;;;;;19.95;42.57;101363.19;2286159;75;52660;-78
2024/04/21 01:28:58;;;;;;;2.25;1.98;;;;;;;19.93;42.62;101362.52;2334012;75;50342;-78
2024/04/21 01:32:00;;;;;;;2.15;1.95;;;;;;;19.93;42.68;101372.44;2347057;75;50390;-77
2024/04/21 01:35:03;;;;;;;2.22;1.90;;;;;;;19.91;42.70;101373.11;2329163;75;50760;-78
2024/04/21 01:38:05;;;;;;;2.58;1.98;;;;;;;19.92;42.70;101368.09;2320865;75;50314;-78
2024/04/21 01:41:07;;;;;;;3.62;2.40;;;;;;;19.92;42.68;101370.77;2285879;75;51680;-77
2024/04/21 01:44:09;;;;;;;2.40;1.90;;;;;;;19.91;42.67;101367.25;2349267;75;51541;-77
2024/04/21 01:47:11;;;;;;;2.52;2.02;;;;;;;19.93;42.68;101368.41;2342098;74;52775;-77
2024/04/21 01:50:14;;;;;;;2.05;1.85;;;;;;;19.92;42.66;101367.58;2303558;75;52541;-78
2024/04/21 01:53:16;;;;;;;2.22;1.90;;;;;;;19.92;42.67;101366.74;2341303;75;50297;-77
2024/04/21 01:56:18;;;;;;;2.27;1.87;;;;;;;19.93;42.69;101372.44;2334837;75;51424;-78
2024/04/21 01:59:21;;;;;;;2.35;2.15;;;;;;;19.91;42.67;101368.59;2284670;75;50326;-78
2024/04/21 02:02:23;;;;;;;2.42;1.80;;;;;;;19.91;42.66;101373.11;2332397;75;50791;-77
2024/04/21 02:05:26;;;;;;;2.10;1.90;;;;;;;19.90;42.55;101375.47;2299173;75;51002;-77
2024/04/21 02:08:28;;;;;;;2.40;1.98;;;;;;;19.91;42.54;101371.77;2338401;75;50314;-77
2024/04/21 02:11:30;;;;;;;2.17;1.70;;;;;;;19.91;42.56;101379.34;2340634;75;50714;-77
2024/04/21 02:14:32;;;;;;;2.25;2.05;;;;;;;19.90;42.51;101376.30;2303790;75;51040;-77
2024/04/21 02:17:35;;;;;;;2.05;1.82;;;;;;;19.90;42.51;101378.16;2328323;75;51594;-77
2024/04/21 02:20:37;;;;;;;3.08;2.30;;;;;;;19.89;42.49;101389.41;2306321;75;51422;-77
2024/04/21 02:23:39;;;;;;;2.60;2.10;;;;;;;19.89;42.49;101385.90;2331530;75;50355;-78
2024/04/21 02:26:41;;;;;;;2.70;2.20;;;;;;;19.89;42.52;101378.67;2315032;74;50410;-77
2024/04/21 02:29:43;;;;;;;2.50;2.15;;;;;;;19.90;42.55;101379.50;2298126;75;50060;-77
2024/04/21 02:32:46;;;;;;;2.05;1.85;;;;;;;19.88;42.54;101385.03;2318669;75;51513;-77
2024/04/21 02:35:50;;;;;;;2.52;2.10;;;;;;;19.89;42.55;101383.22;2336694;75;50723;-77
2024/04/21 02:38:52;;;;;;;2.87;2.35;;;;;;;19.87;42.59;101380.69;2326072;75;23505;-80
2024/04/21 02:41:54;;;;;;;2.50;2.08;;;;;;;19.89;42.56;101381.87;2330990;75;51502;-79
2024/04/21 02:44:56;;;;;;;2.17;1.98;;;;;;;19.89;42.48;101385.90;2336288;75;50167;-76
2024/04/21 02:47:58;;;;;;;2.20;1.77;;;;;;;19.89;42.42;101384.55;2324244;75;51432;-79
2024/04/21 02:51:01;;;;;;;2.17;1.98;;;;;;;19.90;42.34;101386.22;2334623;75;50194;-77
2024/04/21 02:54:03;;;;;;;2.17;1.98;;;;;;;19.90;42.31;101383.53;2296005;75;51090;-77
2024/04/21 02:57:05;;;;;;;2.40;2.20;;;;;;;19.90;42.30;101387.56;2312189;75;50182;-77
2024/04/21 03:00:08;;;;;;;2.17;1.92;;;;;;;19.89;42.36;101385.90;2291711;75;51542;-78
2024/04/21 03:03:10;;;;;;;2.02;1.80;;;;;;;19.90;42.34;101391.59;2243931;75;51222;-77
2024/04/21 03:06:13;;;;;;;2.02;1.82;;;;;;;19.86;42.37;101383.05;2331137;75;50795;-77
2024/04/21 03:09:15;;;;;;;2.35;1.95;;;;;;;19.88;42.41;101383.69;2328341;75;51611;-77
2024/04/21 03:12:17;;;;;;;2.15;1.95;;;;;;;19.86;42.38;101387.56;2305064;75;51598;-78
2024/04/21 03:15:19;;;;;;;2.50;2.12;;;;;;;19.86;42.40;101391.59;2326868;75;51473;-77
2024/04/21 03:18:21;;;;;;;2.55;2.20;;;;;;;19.86;42.40;101391.59;2297516;75;49547;-77
2024/04/21 03:21:24;;;;;;;2.22;2.02;;;;;;;19.86;42.40;101392.94;2326035;75;50516;-77
2024/04/21 03:24:26;;;;;;;2.85;2.10;;;;;;;19.86;42.39;101392.45;2328905;75;50412;-77
2024/04/21 03:27:28;;;;;;;2.40;2.00;;;;;;;19.86;42.39;101395.14;2253700;75;49573;-78
2024/04/21 03:30:30;;;;;;;2.33;1.87;;;;;;;19.86;42.41;101392.94;2322356;75;50652;-77
2024/04/21 03:33:32;;;;;;;2.70;1.85;;;;;;;19.86;42.40;101388.42;2339861;75;51438;-77
2024/04/21 03:36:34;;;;;;;2.65;2.33;;;;;;;19.85;42.40;101390.77;2322286;75;51405;-76
2024/04/21 03:39:37;;;;;;;2.42;2.22;;;;;;;19.86;42.38;101390.25;2333414;75;51509;-76
2024/04/21 03:42:39;;;;;;;2.92;1.90;;;;;;;19.86;42.32;101388.91;2313833;75;50362;-76
2024/04/21 03:45:41;;;;;;;2.30;2.00;;;;;;;19.86;42.25;101398.30;2315982;75;50420;-77
2024/04/21 03:48:43;;;;;;;2.15;1.95;;;;;;;19.84;42.25;101394.47;2302480;75;49600;-76
2024/04/21 03:51:45;;;;;;;2.30;2.10;;;;;;;19.84;42.26;101397.67;2299254;75;49535;-76
2024/04/21 03:54:50;;;;;;;2.30;1.95;;;;;;;19.85;42.18;101400.67;2318953;75;50715;-77
2024/04/21 03:57:52;;;;;;;2.10;1.90;;;;;;;19.84;42.24;101407.06;2332370;75;23687;-79
2024/04/21 04:00:54;;;;;;;2.20;2.00;;;;;;;19.83;42.25;101408.05;2334368;75;50367;-78
2024/04/21 04:03:56;;;;;;;2.22;2.02;;;;;;;19.83;42.25;101417.45;2335548;75;50252;-77
2024/04/21 04:06:58;;;;;;;2.72;1.98;;;;;;;19.83;42.30;101413.42;2286317;75;49556;-78
2024/04/21 04:10:00;;;;;;;2.17;1.92;;;;;;;19.81;42.28;101424.36;2341195;75;50804;-77
2024/04/21 04:13:03;;;;;;;2.62;2.10;;;;;;;19.83;42.30;101426.86;2330824;75;51444;-76
2024/04/21 04:16:05;;;;;;;2.67;1.98;;;;;;;19.83;42.26;101433.57;2281319;75;49554;-77
2024/04/21 04:19:07;;;;;;;2.20;1.90;;;;;;;19.82;42.27;101439.45;2304196;75;51488;-78
2024/04/21 04:22:09;;;;;;;2.10;1.90;;;;;;;19.83;42.25;101440.28;2350086;75;51596;-78
2024/04/21 04:25:12;;;;;;;2.27;1.85;;;;;;;19.83;42.19;101443.80;2335349;75;50568;-79
2024/04/21 04:28:14;;;;;;;2.17;1.98;;;;;;;19.82;42.14;101450.70;2324261;74;49997;-77
2024/04/21 04:31:16;;;;;;;2.45;2.00;;;;;;;19.82;42.08;101448.02;2283936;75;49568;-79
2024/04/21 04:34:18;;;;;;;2.65;1.90;;;;;;;19.83;42.05;101457.73;2335634;75;50743;-78
2024/04/21 04:37:21;;;;;;;2.60;1.80;;;;;;;19.82;42.04;101460.94;2297759;75;51437;-78
2024/04/21 04:40:23;;;;;;;2.08;1.77;;;;;;;19.83;42.04;101461.77;2296391;75;51575;-77
2024/04/21 04:43:25;;;;;;;2.42;2.20;;;;;;;19.83;41.98;101463.94;2340396;75;50786;-78
2024/04/21 04:46:27;;;;;;;2.17;1.98;;;;;;;19.82;42.04;101468.99;2313569;75;51552;-78
2024/04/21 04:49:29;;;;;;;2.30;2.05;;;;;;;19.82;42.03;101473.53;2346960;75;50717;-78
2024/04/21 04:52:32;;;;;;;2.60;2.15;;;;;;;19.83;42.05;101484.09;2307198;75;50190;-77
2024/04/21 04:55:34;;;;;;;2.10;1.90;;;;;;;19.82;42.09;101487.79;2335471;75;49560;-77
2024/04/21 04:58:36;;;;;;;2.40;2.17;;;;;;;19.80;42.08;101489.30;2322840;75;50769;-77
2024/04/21 05:01:38;;;;;;;2.10;1.82;;;;;;;19.82;42.13;101499.05;2331300;75;51357;-76
2024/04/21 05:04:40;;;;;;;2.50;2.30;;;;;;;19.82;42.12;101497.19;2277804;75;51854;-78
2024/04/21 05:07:42;;;;;;;2.60;2.10;;;;;;;19.82;42.13;101496.36;2330203;75;51504;-77
2024/04/21 05:10:45;;;;;;;2.42;2.08;;;;;;;19.80;42.13;101496.52;2323913;75;51517;-77
2024/04/21 05:13:47;;;;;;;3.33;2.40;;;;;;;19.80;42.17;101500.55;2345542;75;50319;-77
2024/04/21 05:16:49;;;;;;;2.30;2.10;;;;;;;19.80;42.14;101505.41;2347550;75;50470;-77
2024/04/21 05:19:51;;;;;;;1.92;1.72;;;;;;;19.80;42.10;101509.44;2303306;75;50098;-78
2024/04/21 05:22:53;;;;;;;3.08;1.87;;;;;;;19.82;42.09;101519.19;2326663;75;51586;-78
2024/04/21 05:25:56;;;;;;;2.42;2.00;;;;;;;19.81;42.08;101525.07;2319508;75;54633;-77
2024/04/21 05:28:58;;;;;;;2.27;2.08;;;;;;;19.80;42.05;101524.72;2314506;75;51521;-78
2024/04/21 05:32:00;;;;;;;2.33;2.10;;;;;;;19.80;42.02;101525.55;2329387;75;50119;-78
2024/04/21 05:35:02;;;;;;;1.75;1.65;;;;;;;19.80;42.03;101525.55;2327991;75;50368;-77
2024/04/21 05:38:05;;;;;;;2.15;1.90;;;;;;;19.80;41.97;101528.74;2317253;75;50315;-77
2024/04/21 05:41:07;;;;;;;2.40;2.17;;;;;;;19.80;42.02;101530.92;2314549;75;51529;-77
2024/04/21 05:44:09;;;;;;;2.80;1.90;;;;;;;19.81;42.00;101538.50;2289837;75;51092;-77
2024/04/21 05:47:12;;;;;;;1.85;1.70;;;;;;;19.80;42.03;101539.48;2331548;75;50331;-77
2024/04/21 05:50:14;;;;;;;2.08;1.87;;;;;;;19.79;42.05;101538.66;2321945;75;50382;-77
2024/04/21 05:53:16;;;;;;;2.70;2.10;;;;;;;19.80;42.08;101549.72;2309981;75;50722;-78
2024/04/21 05:56:18;;;;;;;2.47;2.00;;;;;;;19.80;42.09;101544.86;2327693;75;51517;-78
2024/04/21 05:59:21;;;;;;;2.22;2.02;;;;;;;19.80;42.03;101548.37;2325231;75;51436;-78
2024/04/21 06:02:23;;;;;;;2.27;2.00;;;;;;;19.82;41.99;101544.70;2283905;75;50077;-78
2024/04/21 06:05:25;;;;;;;2.00;1.80;;;;;;;19.80;41.92;101555.59;2329028;75;51348;-78
2024/04/21 06:08:27;;;;;;;2.58;2.17;;;;;;;19.81;41.89;101564.02;2335733;75;52125;-78
2024/04/21 06:11:30;;;;;;;2.35;2.08;;;;;;;19.80;41.86;101560.45;2286217;75;50106;-78
2024/04/21 06:14:32;;;;;;;2.67;2.00;;;;;;;19.84;41.82;101568.20;2323889;75;50228;-78
2024/04/21 06:17:34;;;;;;;2.00;1.90;;;;;;;19.83;41.79;101562.48;2317145;75;50411;-78
2024/04/21 06:20:36;;;;;;;2.75;2.30;;;;;;;19.83;41.80;101568.69;2339599;75;50748;-78
2024/04/21 06:23:38;;;;;;;2.47;2.02;;;;;;;19.84;41.83;101572.23;2332808;75;51539;-77
2024/04/21 06:26:41;;;;;;;2.52;2.20;;;;;;;19.84;41.84;101577.61;2288254;75;50931;-78
2024/04/21 06:29:43;;;;;;;2.47;1.85;;;;;;;19.84;41.85;101573.58;2320772;75;50711;-77
2024/04/21 06:32:45;;;;;;;2.58;2.27;;;;;;;19.83;41.94;101582.63;2338054;75;51562;-77
2024/04/21 06:35:49;;;;;;;2.42;1.98;;;;;;;19.83;41.95;101585.31;2301883;75;51030;-77
2024/04/21 06:38:52;;;;;;;2.42;1.90;;;;;;;19.84;41.97;101582.97;2342410;75;50319;-77
2024/04/21 06:41:55;;;;;;;2.75;2.22;;;;;;;19.83;42.00;101585.31;2337047;75;51537;-78
2024/04/21 06:44:57;;;;;;;2.50;2.17;;;;;;;19.84;42.01;101592.38;2329454;75;50246;-77
2024/04/21 06:47:59;;;;;;;3.40;2.22;;;;;;;19.85;42.03;101592.19;2323669;75;50392;-78
2024/04/21 06:51:01;;;;;;;2.20;2.00;;;;;;;19.84;42.08;101590.52;2300404;75;51581;-78
2024/04/21 06:54:03;;;;;;;2.58;2.08;;;;;;;19.83;42.12;101595.54;2321386;75;51499;-77
2024/04/21 06:57:06;;;;;;;2.40;2.00;;;;;;;19.86;42.11;101598.39;2326928;75;50715;-77
2024/04/21 07:00:08;;;;;;;1.82;1.72;;;;;;;19.85;42.09;101592.70;2302450;75;52605;-78
2024/04/21 07:03:11;;;;;;;2.83;1.95;;;;;;;19.86;42.08;101596.58;2281934;75;50388;-77
2024/04/21 07:06:13;;;;;;;2.27;2.08;;;;;;;19.87;42.06;101600.92;2341321;75;50656;-78
2024/04/21 07:09:15;;;;;;;2.60;2.10;;;;;;;19.89;42.04;101607.48;2330631;75;51571;-78
2024/04/21 07:12:17;;;;;;;2.15;1.95;;;;;;;19.90;42.04;101607.80;2332411;75;51369;-78
2024/04/21 07:15:19;;;;;;;2.25;1.90;;;;;;;19.89;42.07;101604.28;2300529;75;51047;-78
2024/04/21 07:18:22;;;;;;;2.25;2.05;;;;;;;19.88;42.11;101610.65;2333990;75;50410;-78
2024/04/21 07:21:24;;;;;;;2.00;1.80;;;;;;;19.91;42.10;101612.16;2337937;75;50415;-78
2024/04/21 07:24:26;;;;;;;2.25;2.00;;;;;;;19.90;42.12;101616.70;2292226;75;50107;-78
2024/04/21 07:27:28;;;;;;;2.30;2.10;;;;;;;19.89;42.17;101615.03;2335123;75;51549;-78
2024/04/21 07:30:31;;;;;;;2.17;1.87;;;;;;;19.90;42.20;101625.27;2323073;75;50791;-78
2024/04/21 07:33:33;;;;;;;2.20;2.00;;;;;;;19.90;42.26;101618.55;2330687;75;51462;-78
2024/04/21 07:36:35;;;;;;;1.98;1.77;;;;;;;19.91;42.23;101620.22;2328650;75;50360;-79
2024/04/21 07:39:38;;;;;;;2.15;1.95;;;;;;;19.93;42.25;101619.55;2302969;75;50074;-79
2024/04/21 07:42:40;;;;;;;1.90;1.77;;;;;;;19.92;42.25;101620.06;2325001;75;51674;-78
2024/04/21 07:45:44;;;;;;;2.27;2.08;;;;;;;19.94;42.22;101621.25;2327264;75;50664;-78
2024/04/21 07:48:46;;;;;;;2.20;1.87;;;;;;;19.94;42.25;101615.88;2312495;75;50109;-78
2024/04/21 07:51:48;;;;;;;2.55;1.80;;;;;;;19.94;42.26;101626.11;2308517;75;50149;-78
2024/04/21 07:54:51;;;;;;;2.08;1.87;;;;;;;19.96;42.26;101620.55;2336248;75;50710;-78
2024/04/21 07:57:53;;;;;;;2.62;2.02;;;;;;;19.95;42.30;101617.54;2326505;75;50532;-78
2024/04/21 08:00:55;;;;;;;2.33;1.80;;;;;;;19.95;42.32;101633.15;2317418;75;50713;-78
2024/04/21 08:03:57;;;;;;;2.67;2.10;;;;;;;19.96;42.34;101623.23;2298035;75;51058;-78
2024/04/21 08:07:00;;;;;;;2.22;2.02;;;;;;;19.95;42.40;101622.41;2321681;75;52397;-78
2024/04/21 08:10:02;;;;;;;2.42;1.95;;;;;;;19.97;42.40;101631.14;2321056;75;51430;-77
2024/04/21 08:13:04;;;;;;;2.05;1.85;;;;;;;19.99;42.43;101632.33;2303319;75;49647;-77
2024/04/21 08:16:06;;;;;;;2.42;1.95;;;;;;;19.99;42.47;101626.95;2317626;75;51592;-76
2024/04/21 08:19:09;;;;;;;2.12;1.90;;;;;;;19.99;42.50;101628.30;2337162;75;51543;-78
2024/04/21 08:22:11;;;;;;;3.20;1.80;;;;;;;19.99;42.50;101627.79;2342724;75;51472;-78
2024/04/21 08:25:13;;;;;;;2.00;1.80;;;;;;;19.99;42.52;101630.98;2327074;75;50623;-77
2024/04/21 08:28:15;;;;;;;2.35;1.82;;;;;;;19.99;42.52;101623.76;2274642;75;51658;-79
2024/04/21 08:31:17;;;;;;;2.10;1.90;;;;;;;20.01;42.50;101630.29;2330438;75;50365;-77
2024/04/21 08:34:22;;;;;;;2.08;1.80;;;;;;;20.02;42.47;101637.36;2328245;75;51538;-78
2024/04/21 08:37:24;;;;;;;2.20;1.77;;;;;;;20.03;42.28;101626.94;2298989;75;51512;-78
2024/04/21 08:40:27;;;;;;;2.33;2.05;;;;;;;20.04;42.16;101642.06;2333212;75;50743;-78
2024/04/21 08:43:29;;;;;;;2.10;1.77;;;;;;;20.04;42.09;101627.29;2327576;75;50757;-78
2024/04/21 08:46:31;;;;;;;2.00;1.70;;;;;;;20.10;40.61;101635.17;2323056;75;52120;-79
2024/04/21 08:49:34;;;;;;;2.00;1.75;;;;;;;20.10;40.44;101629.80;2323835;75;51466;-78
2024/04/21 08:52:36;;;;;;;1.80;1.70;;;;;;;20.07;40.79;101635.00;2306016;75;49573;-76
2024/04/21 08:55:39;;;;;;;2.75;1.70;;;;;;;20.07;40.72;101633.66;2289601;75;49317;-78
2024/04/21 08:58:41;;;;;;;2.05;1.70;;;;;;;20.08;40.88;101641.21;2344250;75;50722;-78
2024/04/21 09:01:44;;;;;;;2.00;1.80;;;;;;;20.10;41.11;101637.34;2291865;75;51101;-78
2024/04/21 09:04:46;;;;;;;1.85;1.75;;;;;;;20.10;41.17;101638.69;2345912;75;50825;-77
2024/04/21 09:07:48;;;;;;;3.87;2.10;;;;;;;20.10;41.06;101633.83;2332087;75;50788;-77
2024/04/21 09:10:51;;;;;;;1.60;1.45;;;;;;;20.09;40.57;101630.79;2297319;75;52639;-77
2024/04/21 09:13:58;;;;;;;1.82;1.70;;;;;;;20.12;41.08;101628.62;2337409;75;51476;-79
2024/04/21 09:16:57;;;;;;;2.40;1.90;;;;;;;20.13;41.25;101637.00;2321519;75;23640;-75
2024/04/21 09:19:59;;;;;;;1.67;1.57;;;;;;;20.15;41.11;101622.91;2322577;75;50701;-78
2024/04/21 09:23:01;;;;;;;2.98;1.80;;;;;;;20.13;40.96;101633.48;2335161;75;51565;-77
2024/04/21 09:26:03;;;;;;;2.30;2.10;;;;;;;20.15;41.12;101636.34;2311003;75;51667;-77
2024/04/21 09:29:05;;;;;;;2.55;1.80;;;;;;;20.19;41.09;101626.08;2279499;75;50467;-78
2024/04/21 09:32:09;;;;;;;1.80;1.60;;;;;;;20.20;41.17;101632.64;2329644;75;50705;-77
2024/04/21 09:35:11;;;;;;;1.82;1.42;;;;;;;20.21;41.23;101620.03;2318943;75;51535;-76
2024/04/21 09:38:14;;;;;;;1.57;1.47;;;;;;;20.23;41.24;101622.88;2340402;75;50343;-77
2024/04/21 09:41:16;;;;;;;2.35;1.60;;;;;;;20.20;41.27;101621.05;2291740;75;49612;-78
2024/04/21 09:44:18;;;;;;;1.80;1.70;;;;;;;20.21;40.91;101622.72;2318561;75;50719;-78
2024/04/21 09:47:20;;;;;;;1.95;1.75;;;;;;;20.22;41.12;101629.28;2316728;75;50435;-77
2024/04/21 09:50:24;;;;;;;1.65;1.55;;;;;;;20.21;41.13;101624.06;2294142;75;49623;-77
2024/04/21 09:53:26;;;;;;;2.02;1.47;;;;;;;20.21;41.03;101618.69;2315679;75;51471;-78
2024/04/21 09:56:32;;;;;;;1.80;1.70;;;;;;;20.19;40.93;101626.94;2338461;75;51523;-78
2024/04/21 09:59:34;;;;;;;;;;;;;;;20.19;40.58;101622.91;2329913;75;51480;-77
2024/04/21 10:02:37;;;;;;;2.67;1.50;;;;;;;20.22;40.61;101625.25;2348358;75;50376;-77
2024/04/21 10:05:40;;;;;;;1.65;1.55;;;;;;;20.22;40.66;101633.31;2335068;75;50538;-76
2024/04/21 10:08:42;;;;;;;1.92;1.70;;;;;;;20.20;40.79;101630.46;2318458;75;49974;-77
2024/04/21 10:11:44;;;;;;;1.70;1.60;;;;;;;20.19;40.57;101626.94;2323289;75;50444;-78
2024/04/21 10:14:47;;;;;;;1.87;1.57;;;;;;;20.23;40.32;101640.35;2303624;75;51453;-78
2024/04/21 10:18:00;;;;;;;2.00;1.72;;;;;;;20.23;40.80;101632.30;2335617;75;51737;-78
2024/04/21 10:21:04;;;;;;;2.12;1.80;;;;;;;20.20;40.70;101628.61;2338187;75;51573;-78
2024/04/21 10:24:07;;;;;;;3.08;1.70;;;;;;;20.23;40.56;101632.30;2282827;75;51713;-78
2024/04/21 10:27:09;;;;;;;1.95;1.60;;;;;;;20.27;40.46;101622.54;2313038;74;50746;-77
2024/04/21 10:30:12;;;;;;;3.05;1.67;;;;;;;20.26;40.79;101623.56;2329024;75;50340;-77
2024/04/21 10:33:15;;;;;;;2.87;1.82;;;;;;;20.23;40.73;101618.86;2335264;75;50772;-78
2024/04/21 10:36:20;;;;;;;1.75;1.50;;;;;;;20.23;40.70;101620.71;2326957;75;50263;-77
2024/04/21 10:39:25;;;;;;;1.82;1.72;;;;;;;20.21;40.67;101624.90;2303740;75;49785;-78
2024/04/21 10:42:27;;;;;;;1.90;1.55;;;;;;;20.23;40.54;101618.02;2305456;75;51649;-78
2024/04/21 10:45:30;;;;;;;2.47;1.80;;;;;;;20.25;40.30;101628.10;2335539;75;50354;-77
2024/04/21 10:48:32;;;;;;;1.87;1.65;;;;;;;20.24;40.18;101626.41;2299185;75;51061;-78
2024/04/21 10:51:34;;;;;;;2.35;1.70;;;;;;;20.25;40.42;101624.58;2316563;75;51529;-78
2024/04/21 10:54:36;;;;;;;1.87;1.67;;;;;;;20.23;41.18;101621.54;2324795;75;51554;-78
2024/04/21 10:57:39;;;;;;;1.60;1.50;;;;;;;20.22;41.65;101625.25;2305329;75;50713;-78
2024/04/21 11:00:41;;;;;;;1.57;1.47;;;;;;;20.22;41.72;101635.17;2341344;75;51591;-79
2024/04/21 11:03:43;;;;;;;5.60;2.00;;;;;;;20.21;41.64;101629.44;2332674;75;52503;-77
2024/04/21 11:06:45;;;;;;;8.03;2.12;;;;;;;20.21;41.65;101629.44;2267373;75;51413;-77
2024/04/21 11:09:48;;;;;;;5.20;2.33;;;;;;;20.19;41.41;101640.37;2335706;75;50287;-77
2024/04/21 11:12:50;;;;;;;3.83;2.40;;;;;;;19.83;33.21;101621.05;2294452;75;51489;-77
2024/04/21 11:15:52;;;;;;;5.20;2.25;;;;;;;19.89;38.12;101617.72;2282173;75;52183;-76
2024/04/21 11:18:54;;;;;;;6.55;2.67;;;;;;;19.93;38.54;101641.04;2327320;75;50378;-77
2024/04/21 11:21:56;;;;;;;5.87;2.40;;;;;;;19.98;40.19;101615.86;2330990;75;50758;-77
2024/04/21 11:24:59;;;;;;;6.87;2.55;;;;;;;20.03;41.51;101621.56;2309757;75;50363;-77
2024/04/21 11:28:02;;;;;;;12.07;2.33;;;;;;;20.05;41.21;101614.18;2287650;75;49541;-77
2024/04/21 11:31:05;;;;;;;6.83;2.70;;;;;;;20.09;41.59;101617.35;2326268;75;50711;-77
2024/04/21 11:34:07;;;;;;;8.48;2.50;;;;;;;20.13;42.77;101622.23;2331636;75;52148;-76
2024/04/21 11:37:20;;;;;;;9.33;2.20;;;;;;;20.15;43.47;101617.53;2312130;75;51122;-76
2024/04/21 11:40:22;;;;;;;6.17;2.30;;;;;;;20.21;43.50;101614.14;2328521;75;50328;-77
2024/04/21 11:43:28;;;;;;;8.15;2.50;;;;;;;20.22;43.78;101610.98;2324212;75;50740;-77
2024/04/21 11:46:29;;;;;;;;;;;;;;;20.22;43.57;101607.78;2320803;75;50676;-77
2024/04/21 11:49:32;;;;;;;8.03;2.25;;;;;;;20.23;43.48;101600.55;2328511;75;51985;-79
2024/04/21 11:52:34;;;;;;;7.65;2.35;;;;;;;20.24;43.41;101603.56;2330918;75;52084;-79
2024/04/21 11:55:36;;;;;;;13.50;2.70;;;;;;;20.23;43.42;101603.24;2344023;75;51551;-80
2024/04/21 11:58:40;;;;;;;3.15;2.10;;;;;;;20.24;43.15;101599.53;2347364;75;50347;-80
2024/04/21 12:01:43;;;;;;;6.70;2.27;;;;;;;20.25;42.90;101605.26;2303861;75;50011;-79
2024/04/21 12:04:45;;;;;;;7.28;1.98;;;;;;;20.26;43.05;101598.86;2327953;75;50829;-80
2024/04/21 12:07:47;;;;;;;11.40;2.58;;;;;;;20.25;43.14;101599.88;2316833;75;51484;-79
2024/04/21 12:10:49;;;;;;;19.55;2.98;;;;;;;20.25;43.02;101595.85;2279263;75;49594;-79
2024/04/21 12:13:51;;;;;;;8.13;1.87;;;;;;;20.27;42.88;101603.25;2342140;75;50447;-80
2024/04/21 12:16:54;;;;;;;6.85;2.25;;;;;;;20.27;42.82;101598.35;2302973;75;50673;-80
2024/04/21 12:19:56;;;;;;;8.50;2.20;;;;;;;20.28;42.89;101600.05;2340647;75;50829;-81
2024/04/21 12:22:59;;;;;;;13.83;2.70;;;;;;;20.28;42.77;101589.30;2330290;75;50201;-80
2024/04/21 12:26:01;;;;;;;9.03;2.30;;;;;;;20.27;42.87;101587.59;2305118;75;50129;-79
2024/04/21 12:29:03;;;;;;;5.62;2.25;;;;;;;20.28;42.40;101581.23;2342498;75;50293;-79
2024/04/21 12:32:06;;;;;;;8.85;2.17;;;;;;;20.30;42.64;101587.28;2328134;75;50625;-78
2024/04/21 12:35:08;;;;;;;8.08;2.30;;;;;;;20.29;42.54;101585.08;2299557;75;49722;-77
2024/04/21 12:38:10;;;;;;;4.40;1.90;;;;;;;20.27;42.48;101579.53;2311651;75;50358;-79
2024/04/21 12:41:12;;;;;;;5.55;2.22;;;;;;;20.27;42.41;101598.35;2316597;75;50631;-76
2024/04/21 12:44:14;;;;;;;6.92;2.15;;;;;;;20.27;42.12;101579.05;2287589;75;51065;-76
2024/04/21 12:47:17;;;;;;;8.23;2.50;;;;;;;20.29;42.12;101598.52;2307685;75;52312;-77
2024/04/21 12:50:19;;;;;;;7.55;2.40;;;;;;;20.29;42.25;101580.20;2310195;75;51189;-77
2024/04/21 12:53:21;;;;;;;22.80;3.05;;;;;;;20.29;42.23;101576.17;2301464;75;50379;-78
2024/04/21 12:56:23;;;;;;;6.83;2.15;;;;;;;20.29;42.14;101580.20;2323435;75;50353;-80
2024/04/21 12:59:26;;;;;;;6.08;2.35;;;;;;;20.28;42.17;101588.78;2293575;75;51036;-79
2024/04/21 13:02:28;;;;;;;4.87;1.87;;;;;;;20.29;42.09;101572.14;2346778;75;51549;-76
2024/04/21 13:05:30;;;;;;;5.65;2.15;;;;;;;20.29;42.11;101562.74;2333634;75;50411;-79
2024/04/21 13:08:32;;;;;;;3.42;2.10;;;;;;;20.28;42.36;101575.86;2316532;75;50337;-77
2024/04/21 13:11:34;;;;;;;4.72;2.35;;;;;;;20.25;42.15;101575.70;2319639;75;50361;-77
2024/04/21 13:14:37;;;;;;;10.30;2.52;;;;;;;20.23;42.12;101577.20;2291723;75;51777;-77
2024/04/21 13:17:44;;;;;;;6.35;2.60;;;;;;;20.22;42.07;101581.42;2312857;75;50154;-80
2024/04/21 13:20:43;;;;;;;4.60;2.35;;;;;;;20.21;42.08;101575.69;2280448;76;22461;-78
2024/04/21 13:23:45;;;;;;;4.90;2.17;;;;;;;20.22;42.01;101588.97;2306038;75;52736;-78
2024/04/21 13:26:47;;;;;;;6.58;2.33;;;;;;;20.20;42.02;101588.30;2330240;73;51497;-77
2024/04/21 13:29:50;;;;;;;5.33;2.20;;;;;;;20.19;41.99;101585.29;2318019;75;51623;-78
2024/04/21 13:32:52;;;;;;;2.47;1.98;;;;;;;20.16;41.99;101586.95;2321027;75;50718;-78
2024/04/21 13:35:55;;;;;;;4.70;2.40;;;;;;;20.19;41.94;101588.45;2348016;75;50405;-78
2024/04/21 13:38:57;;;;;;;9.15;2.55;;;;;;;20.18;41.93;101586.28;2306758;75;51083;-78
2024/04/21 13:41:59;;;;;;;7.65;2.10;;;;;;;20.16;41.93;101585.60;2319671;75;50786;-78
2024/04/21 13:45:02;;;;;;;6.90;2.22;;;;;;;20.15;41.89;101582.59;2347741;75;50350;-77
2024/04/21 13:48:04;;;;;;;4.60;2.42;;;;;;;20.16;41.91;101590.14;2298604;75;51657;-78
2024/04/21 13:51:06;;;;;;;3.50;2.20;;;;;;;20.16;41.84;101586.95;2278957;75;52383;-78
2024/04/21 13:54:09;;;;;;;6.37;2.30;;;;;;;20.16;41.78;101586.11;2333731;75;51641;-78
2024/04/21 13:57:11;;;;;;;5.92;2.08;;;;;;;20.14;41.80;101578.24;2331379;74;51546;-77
2024/04/21 14:00:14;;;;;;;5.22;2.27;;;;;;;20.14;41.79;101582.27;2327961;75;50362;-77
2024/04/21 14:03:16;;;;;;;6.47;2.30;;;;;;;20.14;41.72;101580.93;2297476;75;49687;-77
2024/04/21 14:06:18;;;;;;;9.40;2.45;;;;;;;20.14;41.78;101578.24;2331892;75;50408;-78